createdAt,value
2023-05-10T00:00:02.118Z,5.40
2023-05-10T00:03:01.675Z,6.00
2023-05-10T00:05:29.888Z,5.70
2023-05-10T00:07:58.342Z,5.20
2023-05-10T00:10:26.616Z,5.20
2023-05-10T00:12:54.999Z,5.60
2023-05-10T00:15:23.609Z,5.90
2023-05-10T00:17:52.311Z,6.00
2023-05-10T00:20:20.782Z,5.20
2023-05-10T00:22:49.180Z,5.50
2023-05-10T00:25:17.608Z,5.70
2023-05-10T00:27:45.809Z,5.70
2023-05-10T00:30:14.837Z,5.10
2023-05-10T00:32:44.655Z,5.40
2023-05-10T00:35:13.165Z,4.80
2023-05-10T00:37:41.732Z,5.60
2023-05-10T00:40:10.594Z,4.70
2023-05-10T00:42:38.847Z,5.20
2023-05-10T00:45:09.776Z,6.40
2023-05-10T00:47:38.693Z,5.40
2023-05-10T00:50:07.708Z,5.10
2023-05-10T00:52:36.184Z,5.50
2023-05-10T00:55:05.123Z,5.50
2023-05-10T00:57:33.724Z,4.80
2023-05-10T01:00:04.192Z,4.90
2023-05-10T01:02:32.543Z,4.80
2023-05-10T01:05:02.816Z,5.10
2023-05-10T01:07:31.415Z,5.60
2023-05-10T01:10:00.020Z,5.70
2023-05-10T01:12:28.539Z,5.30
2023-05-10T01:14:56.937Z,5.20
2023-05-10T01:17:25.792Z,5.50
2023-05-10T01:19:54.118Z,4.90
2023-05-10T01:23:20.080Z,5.10
2023-05-10T01:25:48.263Z,5.30
2023-05-10T01:28:32.233Z,5.70
2023-05-10T01:31:18.694Z,5.30
2023-05-10T01:34:08.939Z,5.20
2023-05-10T01:36:49.411Z,4.90
2023-05-10T01:39:46.288Z,5.00
2023-05-10T01:42:30.605Z,5.30
2023-05-10T01:45:20.683Z,5.20
2023-05-10T01:47:57.899Z,5.10
2023-05-10T01:50:31.289Z,4.90
2023-05-10T01:53:03.586Z,5.00
2023-05-10T01:55:37.069Z,5.10
2023-05-10T01:58:15.446Z,5.30
2023-05-10T02:00:45.721Z,5.40
2023-05-10T02:03:16.576Z,5.50
2023-05-10T02:05:47.891Z,5.60
2023-05-10T02:08:18.605Z,5.40
2023-05-10T02:10:49.049Z,5.80
2023-05-10T02:13:19.272Z,5.20
2023-05-10T02:15:52.465Z,7.80
2023-05-10T02:18:23.083Z,5.50
2023-05-10T02:20:53.668Z,5.40
2023-05-10T02:23:24.486Z,5.20
2023-05-10T02:25:55.924Z,5.20
2023-05-10T02:28:28.060Z,5.20
2023-05-10T02:30:58.791Z,5.50
2023-05-10T02:33:28.033Z,5.00
2023-05-10T02:35:57.811Z,5.30
2023-05-10T02:38:28.084Z,5.90
2023-05-10T02:40:58.355Z,5.60
2023-05-10T02:43:27.281Z,5.40
2023-05-10T02:45:55.800Z,4.90
2023-05-10T02:48:24.172Z,5.40
2023-05-10T02:50:55.297Z,5.10
2023-05-10T02:53:32.959Z,5.00
2023-05-10T02:56:12.235Z,5.20
2023-05-10T02:58:40.545Z,4.50
2023-05-10T03:01:09.166Z,4.70
2023-05-10T03:03:37.544Z,5.30
2023-05-10T03:06:06.130Z,6.00
2023-05-10T03:08:35.074Z,4.50
2023-05-10T03:11:38.307Z,5.20
2023-05-10T03:14:49.702Z,5.60
2023-05-10T03:17:17.905Z,5.10
2023-05-10T03:19:51.964Z,5.30
2023-05-10T03:22:39.131Z,5.70
2023-05-10T03:25:11.958Z,5.30
2023-05-10T03:27:43.940Z,4.60
2023-05-10T03:30:14.446Z,5.20
2023-05-10T03:32:43.281Z,4.90
2023-05-10T03:35:14.507Z,5.30
2023-05-10T03:37:43.191Z,5.00
2023-05-10T03:40:12.152Z,5.30
2023-05-10T03:42:42.125Z,4.90
2023-05-10T03:45:10.813Z,4.90
2023-05-10T03:47:39.197Z,5.20
2023-05-10T03:50:08.281Z,5.60
2023-05-10T03:52:36.820Z,5.50
2023-05-10T03:55:05.956Z,5.10
2023-05-10T03:57:35.114Z,5.60
2023-05-10T04:00:04.842Z,5.30
2023-05-10T04:02:43.194Z,5.50
2023-05-10T04:05:17.997Z,5.30
2023-05-10T04:07:46.362Z,4.90
2023-05-10T04:10:14.797Z,5.30
2023-05-10T04:12:43.471Z,5.80
2023-05-10T04:15:11.696Z,5.10
2023-05-10T04:17:39.969Z,5.10
2023-05-10T04:20:09.330Z,4.80
2023-05-10T04:22:37.578Z,5.80
2023-05-10T04:25:07.414Z,5.10
2023-05-10T04:27:35.978Z,5.50
2023-05-10T04:30:04.877Z,4.50
2023-05-10T04:32:33.571Z,5.50
2023-05-10T04:35:04.742Z,5.20
2023-05-10T04:37:32.997Z,5.20
2023-05-10T04:40:01.297Z,5.40
2023-05-10T04:42:29.905Z,5.60
2023-05-10T04:44:58.487Z,4.80
2023-05-10T04:47:26.806Z,4.80
2023-05-10T04:49:55.169Z,4.60
2023-05-10T04:52:23.526Z,5.70
2023-05-10T04:54:52.541Z,4.70
2023-05-10T04:57:20.831Z,4.40
2023-05-10T04:59:50.333Z,4.80
2023-05-10T05:02:18.913Z,4.40
2023-05-10T05:04:47.345Z,4.90
2023-05-10T05:07:15.861Z,4.50
2023-05-10T05:09:44.147Z,4.80
2023-05-10T05:12:15.421Z,4.50
2023-05-10T05:14:44.438Z,4.90
2023-05-10T05:17:12.902Z,4.70
2023-05-10T05:19:41.293Z,4.60
2023-05-10T05:22:09.776Z,4.90
2023-05-10T05:24:39.380Z,3.90
2023-05-10T05:27:07.958Z,4.80
2023-05-10T05:29:36.814Z,4.50
2023-05-10T05:32:05.448Z,4.80
2023-05-10T05:34:34.223Z,4.80
2023-05-10T05:37:02.433Z,4.70
2023-05-10T05:39:30.854Z,4.30
2023-05-10T05:41:59.653Z,4.40
2023-05-10T05:44:30.046Z,4.40
2023-05-10T05:46:58.303Z,4.60
2023-05-10T05:49:26.585Z,4.60
2023-05-10T05:51:54.906Z,4.40
2023-05-10T05:54:23.214Z,4.30
2023-05-10T05:56:51.490Z,4.90
2023-05-10T05:59:19.836Z,4.40
2023-05-10T06:01:48.215Z,4.50
2023-05-10T06:04:17.371Z,4.80
2023-05-10T06:06:45.908Z,4.70
2023-05-10T06:09:14.197Z,4.90
2023-05-10T06:11:42.567Z,4.70
2023-05-10T06:14:10.983Z,4.40
2023-05-10T06:16:39.292Z,4.10
2023-05-10T06:19:07.738Z,4.50
2023-05-10T06:21:35.971Z,4.30
2023-05-10T06:24:04.428Z,4.60
2023-05-10T06:26:32.706Z,4.70
2023-05-10T06:29:00.982Z,4.40
2023-05-10T06:31:29.245Z,4.10
2023-05-10T06:33:57.573Z,4.40
2023-05-10T06:36:27.587Z,4.30
2023-05-10T06:38:55.958Z,4.30
2023-05-10T06:41:24.943Z,4.20
2023-05-10T06:43:53.328Z,5.50
2023-05-10T06:46:21.638Z,17.60
2023-05-10T06:48:49.949Z,5.80
2023-05-10T06:51:19.303Z,4.90
2023-05-10T06:53:47.767Z,3.90
2023-05-10T06:56:16.049Z,4.60
2023-05-10T06:58:44.374Z,4.40
2023-05-10T07:01:12.915Z,4.10
2023-05-10T07:03:41.561Z,5.00
2023-05-10T07:06:15.715Z,3.90
2023-05-10T07:08:50.596Z,4.10
2023-05-10T07:11:18.979Z,3.80
2023-05-10T07:13:47.659Z,3.90
2023-05-10T07:16:16.439Z,4.00
2023-05-10T07:18:44.675Z,3.80
2023-05-10T07:21:13.035Z,3.80
2023-05-10T07:23:42.926Z,4.20
2023-05-10T07:26:12.736Z,3.20
2023-05-10T07:28:41.625Z,4.00
2023-05-10T07:31:09.967Z,3.40
2023-05-10T07:33:38.302Z,4.00
2023-05-10T07:36:06.785Z,3.50
2023-05-10T07:38:35.085Z,3.30
2023-05-10T07:41:03.291Z,3.70
2023-05-10T07:43:31.793Z,3.70
2023-05-10T07:46:00.821Z,3.70
2023-05-10T07:48:29.088Z,3.80
2023-05-10T07:50:57.477Z,3.60
2023-05-10T07:53:27.447Z,3.80
2023-05-10T07:55:59.442Z,3.70
2023-05-10T07:58:27.911Z,4.00
2023-05-10T08:00:56.290Z,3.40
2023-05-10T08:03:24.635Z,3.50
2023-05-10T08:05:53.091Z,3.30
2023-05-10T08:08:22.677Z,4.10
2023-05-10T08:10:50.931Z,3.20
2023-05-10T08:13:19.326Z,3.60
2023-05-10T08:15:48.182Z,3.40
2023-05-10T08:18:16.449Z,3.40
2023-05-10T08:20:44.867Z,3.30
2023-05-10T08:23:16.735Z,3.10
2023-05-10T08:25:45.052Z,3.30
2023-05-10T08:28:13.396Z,3.10
2023-05-10T08:30:41.685Z,3.10
2023-05-10T08:33:10.109Z,3.10
2023-05-10T08:35:38.404Z,3.20
2023-05-10T08:38:06.742Z,3.10
2023-05-10T08:40:37.877Z,3.20
2023-05-10T08:43:09.970Z,3.10
2023-05-10T08:45:40.732Z,3.00
2023-05-10T08:48:10.933Z,2.80
2023-05-10T08:50:41.977Z,2.60
2023-05-10T08:53:14.062Z,3.20
2023-05-10T08:55:43.934Z,3.00
2023-05-10T08:58:12.284Z,2.70
2023-05-10T09:00:41.111Z,3.40
2023-05-10T09:03:10.473Z,2.90
2023-05-10T09:05:39.190Z,3.30
2023-05-10T09:08:09.745Z,2.40
2023-05-10T09:10:39.980Z,3.00
2023-05-10T09:13:11.024Z,3.10
2023-05-10T09:15:39.982Z,3.00
2023-05-10T09:18:08.398Z,2.80
2023-05-10T09:20:36.695Z,3.00
2023-05-10T09:23:05.049Z,3.10
2023-05-10T09:25:34.864Z,2.50
2023-05-10T09:28:08.451Z,3.40
2023-05-10T09:30:37.093Z,2.70
2023-05-10T09:33:05.505Z,3.40
2023-05-10T09:35:35.149Z,5.10
2023-05-10T09:38:05.518Z,3.00
2023-05-10T09:40:34.020Z,3.00
2023-05-10T09:43:12.084Z,3.30
2023-05-10T09:45:42.291Z,2.60
2023-05-10T09:48:10.590Z,3.10
2023-05-10T09:50:39.997Z,2.70
2023-05-10T09:53:08.562Z,2.90
2023-05-10T09:55:47.127Z,2.80
2023-05-10T09:58:15.776Z,2.90
2023-05-10T10:00:46.252Z,2.30
2023-05-10T10:03:16.775Z,3.10
2023-05-10T10:05:47.228Z,2.40
2023-05-10T10:08:16.821Z,2.50
2023-05-10T10:10:48.070Z,2.40
2023-05-10T10:13:18.468Z,2.90
2023-05-10T10:15:48.927Z,3.00
2023-05-10T10:18:17.492Z,2.80
2023-05-10T10:20:46.679Z,2.70
2023-05-10T10:23:17.353Z,2.50
2023-05-10T10:25:50.038Z,2.00
2023-05-10T10:28:37.407Z,2.50
2023-05-10T10:31:26.600Z,2.70
2023-05-10T10:34:05.008Z,2.40
2023-05-10T10:36:41.110Z,2.40
2023-05-10T10:39:12.093Z,2.60
2023-05-10T10:41:50.632Z,2.40
2023-05-10T10:44:31.902Z,2.20
2023-05-10T10:47:03.690Z,2.90
2023-05-10T10:50:01.721Z,2.70
2023-05-10T10:52:35.383Z,2.40
2023-05-10T10:55:15.915Z,2.40
2023-05-10T10:57:49.670Z,2.50
2023-05-10T11:00:34.272Z,2.40
2023-05-10T11:03:17.245Z,3.20
2023-05-10T11:05:50.514Z,2.60
2023-05-10T11:08:32.236Z,2.60
2023-05-10T11:11:00.669Z,2.10
2023-05-10T11:13:33.055Z,2.60
2023-05-10T11:16:19.718Z,2.60
2023-05-10T11:19:10.536Z,2.40
2023-05-10T11:22:13.398Z,2.20
2023-05-10T11:24:57.613Z,2.20
2023-05-10T11:27:27.395Z,2.60
2023-05-10T11:30:06.168Z,2.40
2023-05-10T11:32:39.058Z,2.80
2023-05-10T11:35:10.967Z,2.30
2023-05-10T11:37:44.792Z,2.40
2023-05-10T11:40:14.628Z,2.90
2023-05-10T11:42:43.433Z,2.50
2023-05-10T11:45:13.526Z,2.30
2023-05-10T11:47:44.484Z,2.60
2023-05-10T11:50:12.973Z,2.50
2023-05-10T11:52:41.335Z,2.60
2023-05-10T11:55:09.824Z,2.50
2023-05-10T11:57:39.821Z,2.50
2023-05-10T12:00:08.923Z,2.20
2023-05-10T12:02:37.529Z,2.30
2023-05-10T12:05:07.098Z,2.20
2023-05-10T12:07:36.153Z,2.50
2023-05-10T12:10:04.660Z,2.30
2023-05-10T12:12:44.751Z,2.40
2023-05-10T12:15:24.568Z,3.00
2023-05-10T12:17:54.648Z,2.30
2023-05-10T12:20:25.171Z,2.20
2023-05-10T12:23:00.580Z,2.50
2023-05-10T12:25:40.384Z,2.20
2023-05-10T12:28:11.154Z,2.50
2023-05-10T12:30:40.453Z,2.20
2023-05-10T12:33:12.281Z,2.20
2023-05-10T12:35:49.462Z,2.10
2023-05-10T12:38:27.026Z,2.30
2023-05-10T12:40:55.671Z,2.20
2023-05-10T12:43:24.310Z,2.10
2023-05-10T12:45:55.670Z,2.30
2023-05-10T12:48:32.748Z,1.80
2023-05-10T12:51:02.947Z,2.70
2023-05-10T12:53:32.199Z,2.50
2023-05-10T12:56:00.749Z,2.30
2023-05-10T12:58:35.462Z,2.50
2023-05-10T13:01:06.723Z,2.30
2023-05-10T13:03:35.183Z,2.50
2023-05-10T13:06:03.819Z,2.70
2023-05-10T13:08:34.784Z,2.30
2023-05-10T13:11:07.593Z,2.20
2023-05-10T13:13:38.901Z,2.30
2023-05-10T13:16:07.922Z,2.50
2023-05-10T13:18:37.150Z,2.40
2023-05-10T13:21:06.740Z,2.10
2023-05-10T13:23:35.803Z,2.50
2023-05-10T13:26:04.456Z,2.00
2023-05-10T13:31:11.727Z,2.20
2023-05-10T13:33:40.253Z,2.60
2023-05-10T13:36:08.912Z,2.10
2023-05-10T13:38:38.764Z,1.90
2023-05-10T13:41:13.538Z,3.10
2023-05-10T13:43:42.049Z,2.30
2023-05-10T13:46:10.707Z,2.30
2023-05-10T13:48:39.309Z,2.30
2023-05-10T13:51:07.724Z,2.30
2023-05-10T13:53:36.180Z,2.20
2023-05-10T13:56:05.019Z,2.30
2023-05-10T13:58:34.987Z,2.80
2023-05-10T14:01:03.524Z,2.20
2023-05-10T14:03:33.746Z,2.60
2023-05-10T14:06:02.790Z,2.40
2023-05-10T14:08:31.462Z,2.00
2023-05-10T14:11:01.089Z,2.60
2023-05-10T14:13:29.790Z,2.30
2023-05-10T14:15:59.879Z,13.00
2023-05-10T14:18:29.605Z,3.10
2023-05-10T14:20:59.174Z,2.80
2023-05-10T14:23:29.999Z,2.30
2023-05-10T14:25:58.727Z,2.30
2023-05-10T14:28:27.526Z,2.60
2023-05-10T14:30:56.007Z,2.30
2023-05-10T14:33:24.667Z,2.40
2023-05-10T14:35:58.500Z,2.50
2023-05-10T14:38:27.758Z,2.30
2023-05-10T14:40:57.242Z,2.60
2023-05-10T14:43:26.177Z,2.70
2023-05-10T14:45:57.622Z,2.50
2023-05-10T14:48:26.424Z,2.50
2023-05-10T14:50:54.808Z,2.20
2023-05-10T14:53:23.247Z,2.80
2023-05-10T14:55:51.940Z,2.40
2023-05-10T14:58:20.845Z,2.30
2023-05-10T15:00:50.075Z,2.10
2023-05-10T15:03:22.426Z,2.80
2023-05-10T15:05:53.352Z,2.30
2023-05-10T15:08:21.875Z,4.20
2023-05-10T15:10:50.213Z,2.70
2023-05-10T15:13:18.841Z,2.20
2023-05-10T15:15:47.327Z,4.00
2023-05-10T15:18:15.964Z,3.80
2023-05-10T15:20:45.786Z,6.40
2023-05-10T15:23:14.313Z,8.30
2023-05-10T15:25:42.872Z,5.10
2023-05-10T15:28:11.454Z,3.40
2023-05-10T15:30:39.814Z,4.80
2023-05-10T15:33:08.992Z,3.00
2023-05-10T15:35:39.357Z,2.50
2023-05-10T15:38:08.384Z,2.50
2023-05-10T15:40:36.850Z,2.50
2023-05-10T15:43:06.564Z,4.90
2023-05-10T15:45:37.483Z,5.20
2023-05-10T15:48:10.289Z,9.90
2023-05-10T15:50:38.761Z,6.20
2023-05-10T15:53:07.152Z,4.10
2023-05-10T15:55:35.902Z,2.90
2023-05-10T15:58:06.653Z,3.10
2023-05-10T16:00:35.124Z,3.60
2023-05-10T16:03:04.198Z,2.30
2023-05-10T16:05:33.848Z,2.40
2023-05-10T16:08:02.547Z,3.40
2023-05-10T16:10:34.297Z,4.30
2023-05-10T16:13:05.230Z,3.90
2023-05-10T16:15:34.218Z,3.30
2023-05-10T16:18:02.998Z,3.20
2023-05-10T16:20:33.257Z,2.40
2023-05-10T16:23:05.871Z,4.40
2023-05-10T16:25:34.295Z,2.70
2023-05-10T16:28:02.850Z,2.50
2023-05-10T16:30:31.317Z,4.10
2023-05-10T16:33:01.639Z,4.10
2023-05-10T16:35:30.352Z,6.70
2023-05-10T16:37:58.710Z,3.80
2023-05-10T16:40:27.104Z,3.40
2023-05-10T16:42:55.594Z,2.80
2023-05-10T16:45:24.253Z,3.10
2023-05-10T16:47:54.159Z,3.60
2023-05-10T16:50:22.729Z,3.00
2023-05-10T16:52:51.008Z,3.10
2023-05-10T16:55:19.747Z,3.30
2023-05-10T16:57:49.722Z,2.80
2023-05-10T17:00:18.205Z,3.10
2023-05-10T17:02:47.058Z,3.10
2023-05-10T17:05:16.152Z,2.80
2023-05-10T17:07:44.807Z,2.80
2023-05-10T17:10:13.333Z,2.50
2023-05-10T17:12:41.771Z,2.70
2023-05-10T17:15:10.602Z,2.70
2023-05-10T17:17:39.131Z,3.40
2023-05-10T17:20:08.474Z,2.80
2023-05-10T17:22:36.855Z,3.10
2023-05-10T17:25:08.211Z,2.80
2023-05-10T17:27:36.573Z,2.40
2023-05-10T17:30:06.040Z,3.00
2023-05-10T17:32:34.582Z,2.90
2023-05-10T17:35:05.366Z,2.50
2023-05-10T17:37:33.879Z,3.00
2023-05-10T17:40:03.828Z,3.80
2023-05-10T17:42:32.926Z,3.40
2023-05-10T17:45:01.376Z,4.30
2023-05-10T17:47:29.906Z,4.70
2023-05-10T17:49:58.322Z,3.50
2023-05-10T17:52:26.969Z,4.00
2023-05-10T17:54:55.649Z,4.40
2023-05-10T17:57:27.505Z,4.70
2023-05-10T17:59:56.013Z,10.50
2023-05-10T18:02:24.354Z,10.50
2023-05-10T18:04:52.887Z,11.40
2023-05-10T18:07:23.837Z,6.10
2023-05-10T18:09:52.194Z,6.20
2023-05-10T18:12:20.555Z,6.00
2023-05-10T18:14:48.973Z,5.10
2023-05-10T18:17:18.165Z,7.20
2023-05-10T18:19:46.509Z,5.20
2023-05-10T18:22:14.936Z,5.00
2023-05-10T18:24:43.308Z,5.50
2023-05-10T18:27:12.091Z,4.90
2023-05-10T18:29:40.386Z,4.70
2023-05-10T18:32:08.642Z,5.00
2023-05-10T18:34:37.494Z,4.90
2023-05-10T18:37:08.016Z,6.40
2023-05-10T18:39:37.718Z,5.20
2023-05-10T18:42:06.272Z,5.70
2023-05-10T18:44:34.759Z,4.30
2023-05-10T18:47:03.255Z,4.40
2023-05-10T18:49:32.196Z,3.80
2023-05-10T18:52:01.112Z,3.80
2023-05-10T18:54:30.347Z,3.70
2023-05-10T18:56:59.002Z,4.40
2023-05-10T18:59:28.292Z,4.70
2023-05-10T19:01:57.710Z,4.40
2023-05-10T19:04:26.344Z,5.30
2023-05-10T19:06:56.088Z,3.40
2023-05-10T19:09:26.832Z,3.80
2023-05-10T19:11:55.454Z,4.30
2023-05-10T19:14:25.593Z,4.70
2023-05-10T19:16:54.678Z,5.20
2023-05-10T19:19:23.274Z,4.70
2023-05-10T19:21:52.378Z,5.60
2023-05-10T19:24:24.974Z,5.00
2023-05-10T19:26:54.391Z,4.40
2023-05-10T19:29:23.523Z,4.80
2023-05-10T19:31:53.083Z,4.10
2023-05-10T19:34:21.946Z,4.30
2023-05-10T19:36:50.689Z,3.90
2023-05-10T19:39:19.825Z,3.60
2023-05-10T19:41:50.477Z,4.10
2023-05-10T19:44:19.011Z,4.70
2023-05-10T19:46:47.460Z,3.90
2023-05-10T19:49:17.390Z,4.00
2023-05-10T19:51:45.932Z,3.70
2023-05-10T19:54:14.224Z,3.20
2023-05-10T19:56:42.581Z,4.00
2023-05-10T19:59:10.888Z,3.50
2023-05-10T20:01:39.316Z,3.80
2023-05-10T20:04:07.838Z,4.60
2023-05-10T20:06:36.856Z,4.10
2023-05-10T20:09:05.113Z,3.40
2023-05-10T20:11:34.250Z,3.80
2023-05-10T20:14:04.721Z,4.00
2023-05-10T20:16:32.983Z,4.20
2023-05-10T20:19:01.640Z,3.60
2023-05-10T20:21:30.063Z,3.80
2023-05-10T20:23:58.299Z,3.90
2023-05-10T20:26:26.741Z,4.80
2023-05-10T20:28:55.108Z,4.40
2023-05-10T20:31:23.403Z,4.90
2023-05-10T20:33:51.670Z,4.70
2023-05-10T20:36:20.090Z,4.80
2023-05-10T20:38:48.217Z,7.50
2023-05-10T20:41:16.541Z,5.60
2023-05-10T20:43:44.856Z,4.70
2023-05-10T20:46:13.280Z,4.50
2023-05-10T20:48:41.636Z,4.10
2023-05-10T20:51:10.102Z,5.60
2023-05-10T20:53:40.501Z,5.10
2023-05-10T20:56:08.811Z,4.90
2023-05-10T20:58:37.034Z,5.70
2023-05-10T21:01:05.339Z,4.30
2023-05-10T21:03:33.726Z,4.30
2023-05-10T21:06:02.077Z,4.50
2023-05-10T21:08:30.274Z,4.30
2023-05-10T21:10:59.496Z,4.00
2023-05-10T21:13:27.731Z,3.70
2023-05-10T21:15:56.293Z,4.10
2023-05-10T21:18:26.093Z,3.90
2023-05-10T21:20:54.521Z,4.70
2023-05-10T21:23:22.789Z,3.50
2023-05-10T21:25:51.140Z,4.40
2023-05-10T21:28:19.422Z,4.30
2023-05-10T21:30:48.000Z,4.80
2023-05-10T21:33:16.419Z,4.30
2023-05-10T21:35:44.794Z,4.90
2023-05-10T21:38:13.056Z,3.80
2023-05-10T21:40:41.598Z,4.30
2023-05-10T21:43:11.331Z,5.10
2023-05-10T21:45:39.933Z,4.40
2023-05-10T21:48:09.062Z,5.60
2023-05-10T21:50:37.316Z,4.60
2023-05-10T21:53:05.795Z,4.70
2023-05-10T21:55:34.368Z,4.90
2023-05-10T21:58:02.646Z,4.90
2023-05-10T22:00:32.742Z,4.10
2023-05-10T22:03:02.645Z,4.60
2023-05-10T22:05:31.023Z,4.20
2023-05-10T22:07:59.297Z,4.70
2023-05-10T22:10:27.747Z,4.80
2023-05-10T22:12:55.920Z,4.20
2023-05-10T22:15:24.125Z,4.40
2023-05-10T22:17:52.924Z,4.90
2023-05-10T22:20:21.235Z,5.20
2023-05-10T22:22:49.386Z,6.30
2023-05-10T22:25:17.936Z,5.10
2023-05-10T22:27:46.215Z,5.50
2023-05-10T22:30:14.626Z,5.50
2023-05-10T22:32:43.021Z,5.90
2023-05-10T22:35:11.588Z,4.60
2023-05-10T22:37:39.898Z,5.50
2023-05-10T22:40:08.901Z,4.60
2023-05-10T22:42:37.262Z,5.10
2023-05-10T22:45:06.096Z,4.60
2023-05-10T22:47:34.677Z,5.30
2023-05-10T22:50:05.867Z,5.30
2023-05-10T22:52:34.265Z,5.10
2023-05-10T22:55:02.585Z,5.10
2023-05-10T22:57:31.302Z,5.70
2023-05-10T22:59:59.914Z,5.50
2023-05-10T23:02:28.205Z,5.90
2023-05-10T23:04:56.722Z,5.20
2023-05-10T23:07:25.148Z,5.60
2023-05-10T23:09:53.321Z,5.40
2023-05-10T23:12:21.457Z,5.40
2023-05-10T23:14:50.754Z,5.30
2023-05-10T23:17:18.994Z,5.10
2023-05-10T23:19:47.188Z,5.70
2023-05-10T23:22:15.540Z,5.50
2023-05-10T23:24:43.755Z,6.40
2023-05-10T23:27:12.064Z,5.20
2023-05-10T23:29:40.290Z,5.80
2023-05-10T23:32:08.610Z,5.70
2023-05-10T23:34:36.951Z,6.30
2023-05-10T23:37:06.336Z,5.70
2023-05-10T23:39:34.928Z,5.20
2023-05-10T23:42:03.336Z,5.90
2023-05-10T23:44:31.778Z,5.30
2023-05-10T23:47:00.045Z,5.90
2023-05-10T23:49:28.387Z,5.20
2023-05-10T23:51:56.598Z,5.10
2023-05-10T23:54:24.800Z,6.00
2023-05-10T23:56:53.499Z,5.00
2023-05-10T23:59:21.811Z,6.20
